createdAt,value
2022-11-16T00:01:43.256Z,69.64
2022-11-16T00:04:12.195Z,70.51
2022-11-16T00:06:43.497Z,71.39
2022-11-16T00:09:24.161Z,71.76
2022-11-16T00:11:57.526Z,71.51
2022-11-16T00:14:29.501Z,72.05
2022-11-16T00:17:08.443Z,71.21
2022-11-16T00:19:39.480Z,69.46
2022-11-16T00:22:07.209Z,67.26
2022-11-16T00:24:35.180Z,69.01
2022-11-16T00:27:05.625Z,69.75
2022-11-16T00:31:40.121Z,70.97
2022-11-16T00:32:33.917Z,69.42
2022-11-16T00:35:01.747Z,70.75
2022-11-16T00:37:29.512Z,71.92
2022-11-16T00:39:59.564Z,71.93
2022-11-16T00:42:32.987Z,71.51
2022-11-16T00:45:00.751Z,71.75
2022-11-16T00:47:28.751Z,70.38
2022-11-16T00:49:58.399Z,72.18
2022-11-16T00:52:26.374Z,71.89
2022-11-16T00:55:18.403Z,70.98
2022-11-16T00:57:51.503Z,71.24
2022-11-16T01:00:21.601Z,71.73
2022-11-16T01:02:56.910Z,71.63
2022-11-16T01:05:31.662Z,71.85
2022-11-16T01:08:38.864Z,72.07
2022-11-16T01:11:26.049Z,69.27
2022-11-16T01:14:17.508Z,69.56
2022-11-16T01:16:46.474Z,70.13
2022-11-16T01:19:20.227Z,72.10
2022-11-16T01:21:51.102Z,70.49
2022-11-16T01:24:18.569Z,71.77
2022-11-16T01:26:46.182Z,71.11
2022-11-16T01:29:14.024Z,71.85
2022-11-16T01:31:48.755Z,71.62
2022-11-16T01:34:16.866Z,73.41
2022-11-16T01:36:44.819Z,72.88
2022-11-16T01:39:20.272Z,72.79
2022-11-16T01:41:55.777Z,70.96
2022-11-16T01:44:52.507Z,71.93
2022-11-16T01:47:33.791Z,72.22
2022-11-16T01:50:17.272Z,70.94
2022-11-16T01:53:01.520Z,71.45
2022-11-16T01:55:40.799Z,71.14
2022-11-16T01:58:26.620Z,71.64
2022-11-16T02:01:00.094Z,69.08
2022-11-16T02:03:40.222Z,68.40
2022-11-16T02:06:27.967Z,68.03
2022-11-16T02:09:55.165Z,70.23
2022-11-16T02:13:29.418Z,69.48
2022-11-16T02:16:34.809Z,67.84
2022-11-16T02:20:20.571Z,70.24
2022-11-16T02:23:45.820Z,70.53
2022-11-16T02:26:44.408Z,71.95
2022-11-16T02:29:29.243Z,71.76
2022-11-16T02:32:38.488Z,71.19
2022-11-16T02:35:56.522Z,69.87
2022-11-16T02:38:34.166Z,70.65
2022-11-16T02:41:14.323Z,71.27
2022-11-16T02:43:50.758Z,71.10
2022-11-16T02:46:30.152Z,71.35
2022-11-16T02:49:10.507Z,71.25
2022-11-16T02:51:40.129Z,70.22
2022-11-16T02:54:24.913Z,70.70
2022-11-16T02:57:03.261Z,71.27
2022-11-16T02:59:56.469Z,72.43
2022-11-16T03:02:52.623Z,72.80
2022-11-16T03:05:40.028Z,71.81
2022-11-16T03:08:33.162Z,72.89
2022-11-16T03:11:27.581Z,73.27
2022-11-16T03:14:12.049Z,73.33
2022-11-16T03:16:47.003Z,72.89
2022-11-16T03:19:28.685Z,73.03
2022-11-16T03:22:35.762Z,72.89
2022-11-16T03:25:10.329Z,72.90
2022-11-16T03:28:09.466Z,73.31
2022-11-16T03:30:49.885Z,73.38
2022-11-16T03:33:34.207Z,73.41
2022-11-16T03:36:13.914Z,72.60
2022-11-16T03:38:45.758Z,72.86
2022-11-16T03:41:45.271Z,72.89
2022-11-16T03:44:17.569Z,73.25
2022-11-16T03:46:47.696Z,73.13
2022-11-16T03:49:16.490Z,72.83
2022-11-16T03:51:43.943Z,72.89
2022-11-16T03:54:11.180Z,73.30
2022-11-16T03:56:39.870Z,73.36
2022-11-16T03:59:07.000Z,72.82
2022-11-16T04:01:34.983Z,73.32
2022-11-16T04:04:03.304Z,73.23
2022-11-16T04:07:03.064Z,72.68
2022-11-16T04:09:49.056Z,73.19
2022-11-16T04:12:35.067Z,72.54
2022-11-16T04:15:21.067Z,73.87
2022-11-16T04:18:07.026Z,73.79
2022-11-16T04:20:52.917Z,73.77
2022-11-16T04:23:39.774Z,73.85
2022-11-16T04:26:09.989Z,73.13
2022-11-16T04:28:38.749Z,73.86
2022-11-16T04:31:25.259Z,73.87
2022-11-16T04:34:20.086Z,73.90
2022-11-16T04:37:10.309Z,73.96
2022-11-16T04:39:38.691Z,73.69
2022-11-16T04:42:22.180Z,71.83
2022-11-16T04:45:38.300Z,74.47
2022-11-16T04:48:06.465Z,73.96
2022-11-16T04:50:36.625Z,73.97
2022-11-16T04:53:05.469Z,72.78
2022-11-16T04:55:38.979Z,73.19
2022-11-16T04:58:06.509Z,73.25
2022-11-16T05:00:33.893Z,72.82
2022-11-16T05:03:03.603Z,72.88
2022-11-16T05:05:30.804Z,73.17
2022-11-16T05:08:00.308Z,72.68
2022-11-16T05:10:31.651Z,72.31
2022-11-16T05:12:59.645Z,72.62
2022-11-16T05:15:28.443Z,72.49
2022-11-16T05:17:58.201Z,72.71
2022-11-16T05:20:45.142Z,72.31
2022-11-16T05:23:33.406Z,72.08
2022-11-16T05:26:06.453Z,72.19
2022-11-16T05:28:33.989Z,69.04
2022-11-16T05:31:02.540Z,70.17
2022-11-16T05:33:31.892Z,70.14
2022-11-16T05:35:59.115Z,69.18
2022-11-16T05:38:26.713Z,70.05
2022-11-16T05:41:03.305Z,71.33
2022-11-16T05:43:31.304Z,71.56
2022-11-16T05:46:08.229Z,72.20
2022-11-16T05:48:36.696Z,71.50
2022-11-16T05:51:06.569Z,70.83
2022-11-16T05:53:34.989Z,71.19
2022-11-16T05:56:03.378Z,69.32
2022-11-16T05:58:33.967Z,71.03
2022-11-16T06:01:02.390Z,71.93
2022-11-16T06:03:31.253Z,71.27
2022-11-16T06:05:59.736Z,71.94
2022-11-16T06:08:29.739Z,70.23
2022-11-16T06:11:07.529Z,71.10
2022-11-16T06:13:36.809Z,71.09
2022-11-16T06:16:05.994Z,71.93
2022-11-16T06:18:41.602Z,72.43
2022-11-16T06:21:11.318Z,72.49
2022-11-16T06:23:39.210Z,72.79
2022-11-16T06:26:08.653Z,72.49
2022-11-16T06:28:37.758Z,72.29
2022-11-16T06:31:06.614Z,73.01
2022-11-16T06:33:38.074Z,71.17
2022-11-16T06:36:10.385Z,71.41
2022-11-16T06:38:38.695Z,72.49
2022-11-16T06:41:07.955Z,72.43
2022-11-16T06:43:41.335Z,72.55
2022-11-16T06:46:09.422Z,72.42
2022-11-16T06:48:39.275Z,72.69
2022-11-16T06:51:11.134Z,72.82
2022-11-16T06:53:38.516Z,72.10
2022-11-16T06:56:07.786Z,71.78
2022-11-16T06:58:43.244Z,71.86
2022-11-16T07:01:13.069Z,72.66
2022-11-16T07:03:43.119Z,72.37
2022-11-16T07:06:13.784Z,73.07
2022-11-16T07:08:44.739Z,73.11
2022-11-16T07:11:15.134Z,73.49
2022-11-16T07:13:43.299Z,73.30
2022-11-16T07:16:12.478Z,72.72
2022-11-16T07:18:45.261Z,72.75
2022-11-16T07:21:16.689Z,73.24
2022-11-16T07:23:45.827Z,73.68
2022-11-16T07:26:18.985Z,73.93
2022-11-16T07:29:01.636Z,73.60
2022-11-16T07:31:30.789Z,73.35
2022-11-16T07:34:29.454Z,73.06
2022-11-16T07:37:13.113Z,73.39
2022-11-16T07:39:40.979Z,73.54
2022-11-16T07:42:11.770Z,73.59
2022-11-16T07:44:57.972Z,72.99
2022-11-16T07:47:25.674Z,73.25
2022-11-16T07:49:53.156Z,72.72
2022-11-16T07:52:22.234Z,73.16
2022-11-16T07:55:01.742Z,72.85
2022-11-16T07:57:31.190Z,72.01
2022-11-16T08:00:01.658Z,70.80
2022-11-16T08:02:40.827Z,72.60
2022-11-16T08:05:11.662Z,73.34
2022-11-16T08:07:40.165Z,73.58
2022-11-16T08:10:09.127Z,73.25
2022-11-16T08:12:36.360Z,73.97
2022-11-16T08:15:04.238Z,72.42
2022-11-16T08:17:31.563Z,72.74
2022-11-16T08:19:59.719Z,71.85
2022-11-16T08:22:26.933Z,71.71
2022-11-16T08:24:55.148Z,71.41
2022-11-16T08:27:24.879Z,68.53
2022-11-16T08:29:56.061Z,72.20
2022-11-16T08:32:23.428Z,72.31
2022-11-16T08:34:51.019Z,72.44
2022-11-16T08:37:18.626Z,73.25
2022-11-16T08:39:46.262Z,73.00
2022-11-16T08:42:14.039Z,73.24
2022-11-16T08:44:46.138Z,72.01
2022-11-16T08:47:16.034Z,71.39
2022-11-16T08:49:50.015Z,71.21
2022-11-16T08:52:19.152Z,71.75
2022-11-16T08:54:47.282Z,71.69
2022-11-16T08:57:15.390Z,71.13
2022-11-16T08:59:45.129Z,68.26
2022-11-16T09:02:14.916Z,67.29
2022-11-16T09:04:43.806Z,69.79
2022-11-16T09:07:11.649Z,68.05
2022-11-16T09:09:39.528Z,67.60
2022-11-16T09:12:07.203Z,68.05
2022-11-16T09:14:34.509Z,65.66
2022-11-16T09:17:01.692Z,60.41
2022-11-16T09:19:29.215Z,63.67
2022-11-16T09:21:56.425Z,63.55
2022-11-16T09:24:23.759Z,62.05
2022-11-16T09:26:51.668Z,59.79
2022-11-16T09:29:19.164Z,57.83
2022-11-16T09:31:46.584Z,57.31
2022-11-16T09:34:14.256Z,59.92
2022-11-16T09:36:41.487Z,60.18
2022-11-16T09:48:14.024Z,44.69
2022-11-16T09:51:07.536Z,43.63
2022-11-16T09:54:02.483Z,44.56
2022-11-16T09:56:49.467Z,47.08
2022-11-16T10:00:03.739Z,47.61
2022-11-16T10:03:03.779Z,44.82
2022-11-16T10:06:43.602Z,47.94
2022-11-16T10:08:57.012Z,47.96
2022-11-16T10:12:09.744Z,48.12
2022-11-16T10:15:25.554Z,47.68
2022-11-16T10:18:38.605Z,48.72
2022-11-16T10:21:50.248Z,48.20
2022-11-16T10:25:02.677Z,49.78
2022-11-16T10:27:53.637Z,52.38
2022-11-16T10:30:22.693Z,52.04
2022-11-16T10:33:11.590Z,51.57
2022-11-16T10:35:57.059Z,52.04
2022-11-16T10:38:31.371Z,51.09
2022-11-16T10:41:24.671Z,53.33
2022-11-16T10:43:55.715Z,54.11
2022-11-16T10:46:41.411Z,54.71
2022-11-16T10:49:50.733Z,53.62
2022-11-16T10:52:20.598Z,54.34
2022-11-16T10:54:47.878Z,55.89
2022-11-16T10:57:15.271Z,56.99
2022-11-16T10:59:53.339Z,56.61
2022-11-16T11:02:36.047Z,54.48
2022-11-16T11:05:17.104Z,53.35
2022-11-16T11:08:20.507Z,52.31
2022-11-16T11:11:25.510Z,52.27
2022-11-16T11:14:16.509Z,51.75
2022-11-16T11:17:41.203Z,51.20
2022-11-16T11:20:12.633Z,51.07
2022-11-16T11:23:50.970Z,51.65
2022-11-16T11:26:41.223Z,54.01
2022-11-16T11:29:24.383Z,53.91
2022-11-16T11:32:05.739Z,55.45
2022-11-16T11:34:45.638Z,56.07
2022-11-16T11:37:32.656Z,55.73
2022-11-16T11:40:46.831Z,54.22
2022-11-16T11:44:12.396Z,53.69
2022-11-16T11:50:22.560Z,50.69
2022-11-16T11:54:19.024Z,51.79
2022-11-16T11:57:32.840Z,51.31
2022-11-16T12:00:32.876Z,51.21
2022-11-16T12:03:17.401Z,48.86
2022-11-16T12:06:11.464Z,44.72
2022-11-16T12:09:19.448Z,43.35
2022-11-16T12:12:43.127Z,42.74
2022-11-16T12:15:44.040Z,40.49
2022-11-16T12:18:36.816Z,38.70
2022-11-16T12:21:34.052Z,40.08
2022-11-16T12:24:42.639Z,37.01
2022-11-16T12:27:48.577Z,38.63
2022-11-16T12:30:24.639Z,36.98
2022-11-16T12:34:00.147Z,38.09
2022-11-16T12:36:51.747Z,39.40
2022-11-16T12:40:09.052Z,39.68
2022-11-16T12:43:36.887Z,39.87
2022-11-16T12:46:59.479Z,40.75
2022-11-16T12:49:52.365Z,39.21
2022-11-16T12:52:44.996Z,36.96
2022-11-16T12:56:17.332Z,38.85
2022-11-16T13:00:16.258Z,40.28
2022-11-16T13:03:21.455Z,41.67
2022-11-16T13:06:15.315Z,42.18
2022-11-16T13:09:19.741Z,42.93
2022-11-16T13:12:03.409Z,42.35
2022-11-16T13:14:58.761Z,43.13
2022-11-16T13:17:37.724Z,42.79
2022-11-16T13:20:30.269Z,43.64
2022-11-16T13:23:34.599Z,42.40
2022-11-16T13:26:32.779Z,41.61
2022-11-16T13:29:16.194Z,42.64
2022-11-16T13:31:59.877Z,42.27
2022-11-16T13:34:38.104Z,42.63
2022-11-16T13:37:36.783Z,43.11
2022-11-16T13:40:06.528Z,43.21
2022-11-16T13:43:06.044Z,43.40
2022-11-16T13:45:53.087Z,42.95
2022-11-16T13:48:36.085Z,42.92
2022-11-16T13:51:08.494Z,43.02
2022-11-16T13:56:51.749Z,42.50
2022-11-16T13:59:36.562Z,43.55
2022-11-16T14:02:31.725Z,44.34
2022-11-16T14:05:16.489Z,42.37
2022-11-16T14:08:07.152Z,42.29
2022-11-16T14:10:37.393Z,42.28
2022-11-16T14:13:29.298Z,41.96
2022-11-16T14:16:21.693Z,41.35
2022-11-16T14:18:59.292Z,41.27
2022-11-16T14:21:48.898Z,41.78
2022-11-16T14:24:50.497Z,40.83
2022-11-16T14:27:36.301Z,40.37
2022-11-16T14:30:28.578Z,40.02
2022-11-16T14:32:57.843Z,39.57
2022-11-16T14:35:38.272Z,41.05
2022-11-16T14:38:43.230Z,41.10
2022-11-16T14:41:22.289Z,41.18
2022-11-16T14:43:57.562Z,42.38
2022-11-16T14:46:38.084Z,40.68
2022-11-16T14:49:40.214Z,38.69
2022-11-16T14:52:11.544Z,40.42
2022-11-16T14:55:00.655Z,39.98
2022-11-16T14:57:29.887Z,39.20
2022-11-16T15:00:32.087Z,40.07
2022-11-16T15:03:11.727Z,40.37
2022-11-16T15:05:49.906Z,41.20
2022-11-16T15:08:55.863Z,42.01
2022-11-16T15:11:54.407Z,43.13
2022-11-16T15:14:33.066Z,43.69
2022-11-16T15:17:13.292Z,44.70
2022-11-16T15:20:26.178Z,45.55
2022-11-16T15:26:04.681Z,48.26
2022-11-16T15:28:36.029Z,49.05
2022-11-16T15:31:16.921Z,50.35
2022-11-16T15:33:52.651Z,51.84
2022-11-16T15:36:39.253Z,53.28
2022-11-16T15:39:23.430Z,54.05
2022-11-16T15:41:52.730Z,54.27
2022-11-16T15:44:23.661Z,52.87
2022-11-16T15:46:55.192Z,53.98
2022-11-16T15:49:41.466Z,56.04
2022-11-16T15:52:08.564Z,58.39
2022-11-16T15:54:55.408Z,57.69
2022-11-16T15:57:24.879Z,57.54
2022-11-16T15:59:57.101Z,56.69
2022-11-16T16:02:28.992Z,58.03
2022-11-16T16:04:56.653Z,58.02
2022-11-16T16:07:43.068Z,59.49
2022-11-16T16:10:19.298Z,60.03
2022-11-16T16:13:00.248Z,58.56
2022-11-16T16:15:36.195Z,58.15
2022-11-16T16:18:39.359Z,58.71
2022-11-16T16:21:06.877Z,58.59
2022-11-16T16:23:44.428Z,59.91
2022-11-16T16:26:11.575Z,60.09
2022-11-16T16:28:38.706Z,61.11
2022-11-16T16:31:06.830Z,62.56
2022-11-16T16:33:34.236Z,63.94
2022-11-16T16:36:02.096Z,64.04
2022-11-16T16:38:29.846Z,62.64
2022-11-16T16:41:07.076Z,61.38
2022-11-16T16:43:34.904Z,60.86
2022-11-16T16:46:03.894Z,60.33
2022-11-16T16:48:31.258Z,59.74
2022-11-16T16:50:58.457Z,61.04
2022-11-16T16:53:25.702Z,62.30
2022-11-16T16:55:53.000Z,63.09
2022-11-16T16:58:20.308Z,63.93
2022-11-16T17:00:47.612Z,65.03
2022-11-16T17:03:14.885Z,65.90
2022-11-16T17:05:42.100Z,65.32
2022-11-16T17:08:09.234Z,65.02
2022-11-16T17:10:39.036Z,64.77
2022-11-16T17:13:06.510Z,64.55
2022-11-16T17:15:34.253Z,65.73
2022-11-16T17:18:01.707Z,65.76
2022-11-16T17:20:29.103Z,66.31
2022-11-16T17:22:56.365Z,66.23
2022-11-16T17:25:24.081Z,66.03
2022-11-16T17:27:52.101Z,64.14
2022-11-16T17:30:19.781Z,63.26
2022-11-16T17:32:46.953Z,63.61
2022-11-16T17:35:14.369Z,64.09
2022-11-16T17:37:41.667Z,65.47
2022-11-16T17:40:09.821Z,66.72
2022-11-16T17:42:37.557Z,67.78
2022-11-16T17:45:06.858Z,68.06
2022-11-16T17:47:34.265Z,67.79
2022-11-16T17:50:01.900Z,66.94
2022-11-16T17:52:29.216Z,67.02
2022-11-16T17:54:56.490Z,66.12
2022-11-16T17:57:24.013Z,65.64
2022-11-16T17:59:52.133Z,65.83
2022-11-16T18:02:19.640Z,65.11
2022-11-16T18:04:51.280Z,65.49
2022-11-16T18:07:19.065Z,66.19
2022-11-16T18:09:46.858Z,67.43
2022-11-16T18:12:14.435Z,67.14
2022-11-16T18:14:42.486Z,66.49
2022-11-16T18:17:10.177Z,65.67
2022-11-16T18:19:37.415Z,66.10
2022-11-16T18:22:04.721Z,66.27
2022-11-16T18:24:32.422Z,66.98
2022-11-16T18:27:00.457Z,67.29
2022-11-16T18:29:28.664Z,66.06
2022-11-16T18:31:55.835Z,66.03
2022-11-16T18:34:23.099Z,64.60
2022-11-16T18:36:50.957Z,65.16
2022-11-16T18:39:18.307Z,64.14
2022-11-16T18:41:51.718Z,66.30
2022-11-16T18:44:22.549Z,68.20
2022-11-16T18:46:50.556Z,69.08
2022-11-16T18:49:19.505Z,68.70
2022-11-16T18:51:46.764Z,68.46
2022-11-16T18:54:14.046Z,68.62
2022-11-16T18:56:41.976Z,68.30
2022-11-16T18:59:09.454Z,67.87
2022-11-16T19:01:37.376Z,68.68
2022-11-16T19:04:05.315Z,68.25
2022-11-16T19:06:32.801Z,68.15
2022-11-16T19:09:01.333Z,67.94
2022-11-16T19:11:28.879Z,68.48
2022-11-16T19:14:07.476Z,67.72
2022-11-16T19:16:36.001Z,68.30
2022-11-16T19:19:04.451Z,67.82
2022-11-16T19:21:31.968Z,68.74
2022-11-16T19:23:59.919Z,68.24
2022-11-16T19:26:29.077Z,68.66
2022-11-16T19:28:56.960Z,68.48
2022-11-16T19:31:30.484Z,69.18
2022-11-16T19:34:10.086Z,70.48
2022-11-16T19:36:37.851Z,69.97
2022-11-16T19:39:05.980Z,70.39
2022-11-16T19:41:33.619Z,70.00
2022-11-16T19:44:01.855Z,70.36
2022-11-16T19:46:33.882Z,71.61
2022-11-16T19:49:01.718Z,71.84
2022-11-16T19:51:32.522Z,71.44
2022-11-16T19:54:03.498Z,72.02
2022-11-16T19:56:31.307Z,71.31
2022-11-16T19:58:59.193Z,70.35
2022-11-16T20:01:29.597Z,68.74
2022-11-16T20:04:02.099Z,69.50
2022-11-16T20:06:36.292Z,69.21
2022-11-16T20:09:08.924Z,70.06
2022-11-16T20:11:41.795Z,70.54
2022-11-16T20:14:12.258Z,69.98
2022-11-16T20:16:43.533Z,68.90
2022-11-16T20:19:11.026Z,68.46
2022-11-16T20:21:43.956Z,68.00
2022-11-16T20:24:15.360Z,67.37
2022-11-16T20:26:47.903Z,68.55
2022-11-16T20:29:18.299Z,67.81
2022-11-16T20:31:46.339Z,67.74
2022-11-16T20:34:16.918Z,67.52
2022-11-16T20:36:47.962Z,67.70
2022-11-16T20:39:20.914Z,67.58
2022-11-16T20:41:48.978Z,68.16
2022-11-16T20:44:21.018Z,69.24
2022-11-16T20:46:49.042Z,69.58
2022-11-16T20:49:16.371Z,69.21
2022-11-16T20:51:46.023Z,69.18
2022-11-16T20:54:13.254Z,69.44
2022-11-16T20:56:40.709Z,70.26
2022-11-16T20:59:07.879Z,69.12
2022-11-16T21:01:36.612Z,69.75
2022-11-16T21:04:06.159Z,69.79
2022-11-16T21:06:34.157Z,68.33
2022-11-16T21:09:02.203Z,67.08
2022-11-16T21:11:55.578Z,66.65
2022-11-16T21:14:36.023Z,68.44
2022-11-16T21:17:03.213Z,69.03
2022-11-16T21:19:30.328Z,68.29
2022-11-16T21:21:57.458Z,68.26
2022-11-16T21:24:24.841Z,68.35
2022-11-16T21:26:52.435Z,68.06
2022-11-16T21:29:25.746Z,68.80
2022-11-16T21:31:52.935Z,68.66
2022-11-16T21:34:20.281Z,68.28
2022-11-16T21:36:47.699Z,70.02
2022-11-16T21:39:14.841Z,70.04
2022-11-16T21:41:42.330Z,69.33
2022-11-16T21:44:11.886Z,68.25
2022-11-16T21:46:39.051Z,68.17
2022-11-16T21:49:07.532Z,67.61
2022-11-16T21:51:34.723Z,67.90
2022-11-16T21:54:01.956Z,69.50
2022-11-16T21:56:29.109Z,70.06
2022-11-16T21:58:56.268Z,70.59
2022-11-16T22:01:24.522Z,70.12
2022-11-16T22:04:10.755Z,69.63
2022-11-16T22:07:07.271Z,68.03
2022-11-16T22:09:34.668Z,68.10
2022-11-16T22:12:05.215Z,67.87
2022-11-16T22:14:32.886Z,68.37
2022-11-16T22:17:00.446Z,68.91
2022-11-16T22:19:27.838Z,68.32
2022-11-16T22:21:55.150Z,67.75
2022-11-16T22:24:22.436Z,67.18
2022-11-16T22:26:49.881Z,67.04
2022-11-16T22:29:17.192Z,67.51
2022-11-16T22:31:44.674Z,66.95
2022-11-16T22:34:12.014Z,66.14
2022-11-16T22:36:39.195Z,66.90
2022-11-16T22:39:06.440Z,66.74
2022-11-16T22:41:33.667Z,66.74
2022-11-16T22:44:00.948Z,65.69
2022-11-16T22:46:29.371Z,64.93
2022-11-16T22:48:56.978Z,63.16
2022-11-16T22:51:28.304Z,64.64
2022-11-16T22:54:03.703Z,65.03
2022-11-16T22:56:33.963Z,64.48
2022-11-16T22:59:03.606Z,62.79
2022-11-16T23:01:31.924Z,62.66
2022-11-16T23:03:59.258Z,63.84
2022-11-16T23:06:26.732Z,64.70
2022-11-16T23:08:55.683Z,65.18
2022-11-16T23:11:44.676Z,65.53
2022-11-16T23:14:36.086Z,64.51
2022-11-16T23:17:07.132Z,64.76
2022-11-16T23:19:53.553Z,64.72
2022-11-16T23:22:41.143Z,65.19
2022-11-16T23:25:30.805Z,64.38
2022-11-16T23:28:10.593Z,64.96
2022-11-16T23:30:40.876Z,64.22
2022-11-16T23:33:09.128Z,64.02
2022-11-16T23:35:36.584Z,63.85
2022-11-16T23:38:07.633Z,64.22
2022-11-16T23:40:41.099Z,64.42
2022-11-16T23:43:32.568Z,63.48
2022-11-16T23:46:05.069Z,62.68
2022-11-16T23:48:32.844Z,64.08
2022-11-16T23:51:01.587Z,63.18
2022-11-16T23:53:36.749Z,64.15
2022-11-16T23:56:06.182Z,64.04
2022-11-16T23:58:33.946Z,64.39
